Terminal Aerodrome Forecast
Issued by NWS Binghamton, NY

Current Version | Previous Version | Text Only | Print | Product List | Glossary On
Versions: 1 2 3 4 5 6 7 8 9 10 11 12 13 14 15
000
FTUS41 KBGM 101720
TAFAVP
TAF
KAVP 101720Z 1018/1118 27007KT P6SM BKN035
     FM102300 26006KT P6SM SCT045
     FM111500 21004KT P6SM OVC025=

USA.gov is the U.S. government's official web portal to all federal, state and local government web resources and services.